sensor_id;sensor_type;location;lat;lon;timestamp;pressure;altitude;pressure_sealevel;temperature;humidity
11912;BME280;6016;41.928;25.556;2023-03-20T00:00:17;99541.97;;;10.01;63.82
11912;BME280;6016;41.928;25.556;2023-03-20T00:02:44;99355.66;;;8.94;63.24
11912;BME280;6016;41.928;25.556;2023-03-20T00:05:16;99516.44;;;9.69;63.64
11912;BME280;6016;41.928;25.556;2023-03-20T00:07:45;99547.28;;;9.78;64.47
11912;BME280;6016;41.928;25.556;2023-03-20T00:10:12;99537.25;;;9.72;64.55
11912;BME280;6016;41.928;25.556;2023-03-20T00:12:40;99544.91;;;9.75;64.56
11912;BME280;6016;41.928;25.556;2023-03-20T00:15:20;99499.47;;;9.50;65.61
11912;BME280;6016;41.928;25.556;2023-03-20T00:17:48;99533.78;;;9.60;64.96
11912;BME280;6016;41.928;25.556;2023-03-20T00:20:15;99534.66;;;9.61;64.99
11912;BME280;6016;41.928;25.556;2023-03-20T00:22:42;99522.56;;;9.58;65.27
11912;BME280;6016;41.928;25.556;2023-03-20T00:25:12;99437.34;;;8.81;65.95
11912;BME280;6016;41.928;25.556;2023-03-20T00:27:42;99503.00;;;9.17;65.81
11912;BME280;6016;41.928;25.556;2023-03-20T00:30:18;99514.72;;;9.24;65.17
11912;BME280;6016;41.928;25.556;2023-03-20T00:32:47;99520.09;;;9.34;65.76
11912;BME280;6016;41.928;25.556;2023-03-20T00:35:17;99517.31;;;9.35;65.44
11912;BME280;6016;41.928;25.556;2023-03-20T00:37:44;99517.72;;;9.31;66.01
11912;BME280;6016;41.928;25.556;2023-03-20T00:40:12;99510.72;;;9.41;64.81
11912;BME280;6016;41.928;25.556;2023-03-20T00:42:39;99473.19;;;9.16;64.30
11912;BME280;6016;41.928;25.556;2023-03-20T00:45:11;99503.50;;;9.66;63.99
11912;BME280;6016;41.928;25.556;2023-03-20T00:47:39;99507.06;;;9.76;62.77
11912;BME280;6016;41.928;25.556;2023-03-20T00:50:13;99499.75;;;9.80;61.80
11912;BME280;6016;41.928;25.556;2023-03-20T00:52:40;99455.31;;;9.54;61.53
11912;BME280;6016;41.928;25.556;2023-03-20T00:55:09;99506.44;;;9.84;60.99
11912;BME280;6016;41.928;25.556;2023-03-20T00:57:38;99499.66;;;9.81;61.04
11912;BME280;6016;41.928;25.556;2023-03-20T01:00:11;99498.09;;;9.79;61.69
11912;BME280;6016;41.928;25.556;2023-03-20T01:02:43;99496.41;;;9.78;63.53
11912;BME280;6016;41.928;25.556;2023-03-20T01:05:10;99460.88;;;8.94;65.02
11912;BME280;6016;41.928;25.556;2023-03-20T01:07:37;99493.25;;;9.40;64.36
11912;BME280;6016;41.928;25.556;2023-03-20T01:10:05;99486.25;;;9.06;63.75
11912;BME280;6016;41.928;25.556;2023-03-20T01:12:32;99489.72;;;9.18;64.29
11912;BME280;6016;41.928;25.556;2023-03-20T01:14:59;99442.47;;;8.82;62.21
11912;BME280;6016;41.928;25.556;2023-03-20T01:17:27;99488.41;;;9.12;63.75
11912;BME280;6016;41.928;25.556;2023-03-20T01:19:55;99442.22;;;8.97;61.84
11912;BME280;6016;41.928;25.556;2023-03-20T01:22:21;99475.00;;;9.15;62.35
11912;BME280;6016;41.928;25.556;2023-03-20T01:24:48;99476.91;;;9.13;62.43
11912;BME280;6016;41.928;25.556;2023-03-20T01:27:17;99477.75;;;9.03;61.84
11912;BME280;6016;41.928;25.556;2023-03-20T01:29:45;99236.91;;;7.40;61.57
11912;BME280;6016;41.928;25.556;2023-03-20T01:32:14;99472.00;;;8.75;62.95
11912;BME280;6016;41.928;25.556;2023-03-20T01:34:43;99473.31;;;8.69;64.76
11912;BME280;6016;41.928;25.556;2023-03-20T01:37:13;99481.13;;;8.82;63.92
11912;BME280;6016;41.928;25.556;2023-03-20T01:39:40;99482.50;;;8.63;63.66
11912;BME280;6016;41.928;25.556;2023-03-20T01:42:07;99447.34;;;8.53;63.22
11912;BME280;6016;41.928;25.556;2023-03-20T01:44:35;99472.00;;;8.75;63.09
11912;BME280;6016;41.928;25.556;2023-03-20T01:47:11;99482.66;;;8.73;64.74
11912;BME280;6016;41.928;25.556;2023-03-20T01:52:44;99475.34;;;8.54;63.59
11912;BME280;6016;41.928;25.556;2023-03-20T01:55:11;99479.06;;;8.63;63.77
11912;BME280;6016;41.928;25.556;2023-03-20T01:57:38;99474.41;;;8.66;63.09
11912;BME280;6016;41.928;25.556;2023-03-20T02:00:09;99447.81;;;8.47;62.57
11912;BME280;6016;41.928;25.556;2023-03-20T02:02:37;99416.13;;;8.25;64.01
11912;BME280;6016;41.928;25.556;2023-03-20T02:05:08;99471.66;;;8.79;62.14
11912;BME280;6016;41.928;25.556;2023-03-20T02:07:37;99469.28;;;8.76;62.63
11912;BME280;6016;41.928;25.556;2023-03-20T02:10:09;99480.75;;;8.75;61.89
11912;BME280;6016;41.928;25.556;2023-03-20T02:12:37;99474.75;;;8.50;63.05
11912;BME280;6016;41.928;25.556;2023-03-20T02:15:06;99476.44;;;8.63;63.33
11912;BME280;6016;41.928;25.556;2023-03-20T02:17:33;99472.72;;;8.77;63.53
11912;BME280;6016;41.928;25.556;2023-03-20T02:20:06;99475.00;;;8.70;62.58
11912;BME280;6016;41.928;25.556;2023-03-20T02:23:10;99469.03;;;8.68;61.95
11912;BME280;6016;41.928;25.556;2023-03-20T02:26:06;99448.31;;;8.05;62.76
11912;BME280;6016;41.928;25.556;2023-03-20T02:29:07;99465.59;;;8.43;63.97
11912;BME280;6016;41.928;25.556;2023-03-20T02:31:56;99450.13;;;8.51;62.35
11912;BME280;6016;41.928;25.556;2023-03-20T02:34:55;99413.53;;;8.37;62.47
11912;BME280;6016;41.928;25.556;2023-03-20T02:37:57;99407.66;;;8.33;62.32
11912;BME280;6016;41.928;25.556;2023-03-20T02:40:35;99452.56;;;8.30;62.67
11912;BME280;6016;41.928;25.556;2023-03-20T02:43:10;99336.81;;;7.62;62.13
11912;BME280;6016;41.928;25.556;2023-03-20T02:45:46;99445.28;;;8.34;62.52
11912;BME280;6016;41.928;25.556;2023-03-20T02:48:23;99452.94;;;8.37;62.57
11912;BME280;6016;41.928;25.556;2023-03-20T02:50:58;99425.31;;;8.20;62.86
11912;BME280;6016;41.928;25.556;2023-03-20T02:53:33;99412.75;;;8.12;62.04
11912;BME280;6016;41.928;25.556;2023-03-20T02:56:11;99291.53;;;7.35;61.47
11912;BME280;6016;41.928;25.556;2023-03-20T02:58:46;99451.22;;;8.13;62.55
11912;BME280;6016;41.928;25.556;2023-03-20T03:01:18;99453.00;;;8.12;62.80
11912;BME280;6016;41.928;25.556;2023-03-20T03:03:51;99454.66;;;8.13;62.35
11912;BME280;6016;41.928;25.556;2023-03-20T03:06:23;99412.06;;;7.85;61.80
11912;BME280;6016;41.928;25.556;2023-03-20T03:08:55;99455.41;;;8.15;62.58
11912;BME280;6016;41.928;25.556;2023-03-20T03:11:24;99457.28;;;8.13;62.49
11912;BME280;6016;41.928;25.556;2023-03-20T03:13:53;99426.09;;;7.97;62.80
11912;BME280;6016;41.928;25.556;2023-03-20T03:16:24;99156.88;;;6.27;62.01
11912;BME280;6016;41.928;25.556;2023-03-20T03:18:59;99378.47;;;7.66;61.91
11912;BME280;6016;41.928;25.556;2023-03-20T03:21:28;99452.84;;;8.02;62.53
11912;BME280;6016;41.928;25.556;2023-03-20T03:23:57;99404.06;;;7.76;61.70
11912;BME280;6016;41.928;25.556;2023-03-20T03:26:26;99449.75;;;7.97;62.20
11912;BME280;6016;41.928;25.556;2023-03-20T03:28:56;99444.22;;;7.89;62.40
11912;BME280;6016;41.928;25.556;2023-03-20T03:31:24;99447.66;;;7.89;62.35
11912;BME280;6016;41.928;25.556;2023-03-20T03:33:53;99402.72;;;7.45;64.65
11912;BME280;6016;41.928;25.556;2023-03-20T03:36:28;99384.66;;;7.29;64.23
11912;BME280;6016;41.928;25.556;2023-03-20T03:39:03;99419.81;;;7.51;65.26
11912;BME280;6016;41.928;25.556;2023-03-20T03:41:39;99361.22;;;7.15;64.17
11912;BME280;6016;41.928;25.556;2023-03-20T03:44:10;99445.22;;;7.51;65.23
11912;BME280;6016;41.928;25.556;2023-03-20T03:46:41;99438.66;;;7.32;65.51
11912;BME280;6016;41.928;25.556;2023-03-20T03:49:14;99446.91;;;7.52;65.57
11912;BME280;6016;41.928;25.556;2023-03-20T03:51:44;99446.41;;;7.71;67.25
11912;BME280;6016;41.928;25.556;2023-03-20T03:54:17;99331.53;;;7.01;65.11
11912;BME280;6016;41.928;25.556;2023-03-20T03:56:47;99398.72;;;7.53;64.75
11912;BME280;6016;41.928;25.556;2023-03-20T03:59:22;99459.34;;;7.85;65.21
11912;BME280;6016;41.928;25.556;2023-03-20T04:01:51;99367.84;;;7.32;65.10
11912;BME280;6016;41.928;25.556;2023-03-20T04:04:21;99451.97;;;7.91;65.72
11912;BME280;6016;41.928;25.556;2023-03-20T04:06:49;99428.50;;;7.76;66.83
11912;BME280;6016;41.928;25.556;2023-03-20T04:09:17;99430.94;;;7.79;67.10
11912;BME280;6016;41.928;25.556;2023-03-20T04:11:45;99453.28;;;7.85;68.22
11912;BME280;6016;41.928;25.556;2023-03-20T04:14:15;99429.22;;;7.67;68.16
11912;BME280;6016;41.928;25.556;2023-03-20T04:16:41;99451.81;;;7.81;67.37
11912;BME280;6016;41.928;25.556;2023-03-20T04:19:08;99456.47;;;7.53;68.22
11912;BME280;6016;41.928;25.556;2023-03-20T04:21:35;99462.88;;;7.49;69.35
11912;BME280;6016;41.928;25.556;2023-03-20T04:24:02;99454.22;;;7.59;69.44
11912;BME280;6016;41.928;25.556;2023-03-20T04:26:31;99254.22;;;6.21;70.24
11912;BME280;6016;41.928;25.556;2023-03-20T04:28:57;99459.88;;;7.29;70.54
11912;BME280;6016;41.928;25.556;2023-03-20T04:31:24;99451.06;;;7.30;70.50
11912;BME280;6016;41.928;25.556;2023-03-20T04:33:52;99463.38;;;7.54;69.60
11912;BME280;6016;41.928;25.556;2023-03-20T04:36:19;99464.44;;;7.51;68.75
11912;BME280;6016;41.928;25.556;2023-03-20T04:38:46;99457.97;;;7.44;68.71
11912;BME280;6016;41.928;25.556;2023-03-20T04:41:13;99441.28;;;7.32;68.94
11912;BME280;6016;41.928;25.556;2023-03-20T04:43:41;99459.56;;;7.34;69.78
11912;BME280;6016;41.928;25.556;2023-03-20T04:46:08;99453.66;;;7.43;70.25
11912;BME280;6016;41.928;25.556;2023-03-20T04:48:35;99417.47;;;7.35;69.26
11912;BME280;6016;41.928;25.556;2023-03-20T04:51:01;99460.25;;;7.73;69.65
11912;BME280;6016;41.928;25.556;2023-03-20T04:53:28;99412.88;;;7.26;69.63
11912;BME280;6016;41.928;25.556;2023-03-20T04:55:55;99469.47;;;7.54;69.91
11912;BME280;6016;41.928;25.556;2023-03-20T04:58:22;99417.66;;;7.08;70.27
11912;BME280;6016;41.928;25.556;2023-03-20T05:00:50;99394.03;;;6.70;71.98
11912;BME280;6016;41.928;25.556;2023-03-20T05:03:17;99415.13;;;6.69;72.39
11912;BME280;6016;41.928;25.556;2023-03-20T05:05:44;99470.22;;;7.19;72.04
11912;BME280;6016;41.928;25.556;2023-03-20T05:08:10;99474.47;;;7.33;71.66
11912;BME280;6016;41.928;25.556;2023-03-20T05:10:37;99476.41;;;7.55;72.97
11912;BME280;6016;41.928;25.556;2023-03-20T05:13:04;99460.38;;;7.71;71.78
11912;BME280;6016;41.928;25.556;2023-03-20T05:15:31;99486.75;;;8.06;69.94
11912;BME280;6016;41.928;25.556;2023-03-20T05:17:59;99483.59;;;8.25;68.27
11912;BME280;6016;41.928;25.556;2023-03-20T05:20:26;99488.66;;;8.28;67.03
11912;BME280;6016;41.928;25.556;2023-03-20T05:22:53;99492.69;;;8.21;67.37
11912;BME280;6016;41.928;25.556;2023-03-20T05:25:19;99467.22;;;8.10;67.79
11912;BME280;6016;41.928;25.556;2023-03-20T05:27:46;99435.38;;;7.90;68.01
11912;BME280;6016;41.928;25.556;2023-03-20T05:30:14;99462.56;;;8.25;67.96
11912;BME280;6016;41.928;25.556;2023-03-20T05:32:41;99467.38;;;8.31;67.58
11912;BME280;6016;41.928;25.556;2023-03-20T05:35:09;99478.88;;;8.41;68.21
11912;BME280;6016;41.928;25.556;2023-03-20T05:37:37;99477.16;;;8.65;69.88
11912;BME280;6016;41.928;25.556;2023-03-20T05:40:05;99484.56;;;8.71;69.60
11912;BME280;6016;41.928;25.556;2023-03-20T05:42:33;99477.41;;;8.73;68.90
11912;BME280;6016;41.928;25.556;2023-03-20T05:44:59;99441.75;;;8.57;69.52
11912;BME280;6016;41.928;25.556;2023-03-20T05:47:26;99482.78;;;8.94;67.03
11912;BME280;6016;41.928;25.556;2023-03-20T05:49:53;99411.78;;;8.71;66.78
11912;BME280;6016;41.928;25.556;2023-03-20T05:52:21;99426.69;;;8.82;65.21
11912;BME280;6016;41.928;25.556;2023-03-20T05:54:48;99496.75;;;9.18;64.63
11912;BME280;6016;41.928;25.556;2023-03-20T05:57:15;99415.47;;;8.80;64.75
11912;BME280;6016;41.928;25.556;2023-03-20T05:59:42;99445.25;;;8.92;65.29
11912;BME280;6016;41.928;25.556;2023-03-20T06:02:09;99475.47;;;9.09;65.74
11912;BME280;6016;41.928;25.556;2023-03-20T06:04:36;99475.81;;;9.16;66.53
11912;BME280;6016;41.928;25.556;2023-03-20T06:07:04;99477.63;;;9.15;66.96
11912;BME280;6016;41.928;25.556;2023-03-20T06:09:32;99476.41;;;9.31;65.99
11912;BME280;6016;41.928;25.556;2023-03-20T06:11:59;99471.59;;;9.48;65.87
11912;BME280;6016;41.928;25.556;2023-03-20T06:14:26;99476.72;;;9.49;65.79
11912;BME280;6016;41.928;25.556;2023-03-20T06:16:53;99475.84;;;9.60;65.89
11912;BME280;6016;41.928;25.556;2023-03-20T06:19:21;99475.72;;;9.73;65.32
11912;BME280;6016;41.928;25.556;2023-03-20T06:21:48;99385.34;;;9.28;64.09
11912;BME280;6016;41.928;25.556;2023-03-20T06:24:15;99472.28;;;9.94;64.06
11912;BME280;6016;41.928;25.556;2023-03-20T06:26:44;99461.75;;;9.94;64.52
11912;BME280;6016;41.928;25.556;2023-03-20T06:29:10;99465.03;;;10.07;64.09
11912;BME280;6016;41.928;25.556;2023-03-20T06:31:37;99469.22;;;10.10;63.83
11912;BME280;6016;41.928;25.556;2023-03-20T06:34:04;99469.41;;;10.18;64.01
11912;BME280;6016;41.928;25.556;2023-03-20T06:36:31;99475.28;;;10.22;64.45
11912;BME280;6016;41.928;25.556;2023-03-20T06:38:58;99401.44;;;9.79;65.10
11912;BME280;6016;41.928;25.556;2023-03-20T06:41:24;99479.59;;;10.44;64.64
11912;BME280;6016;41.928;25.556;2023-03-20T06:43:52;99485.91;;;10.53;65.09
11912;BME280;6016;41.928;25.556;2023-03-20T06:46:20;99482.25;;;10.96;65.41
11912;BME280;6016;41.928;25.556;2023-03-20T06:48:46;99481.91;;;12.21;61.23
11912;BME280;6016;41.928;25.556;2023-03-20T06:51:13;99476.47;;;14.63;54.14
11912;BME280;6016;41.928;25.556;2023-03-20T06:53:40;99472.81;;;16.18;49.93
11912;BME280;6016;41.928;25.556;2023-03-20T06:56:09;99472.91;;;17.54;46.43
11912;BME280;6016;41.928;25.556;2023-03-20T06:58:35;99318.38;;;18.81;41.89
11912;BME280;6016;41.928;25.556;2023-03-20T07:01:11;99449.06;;;21.43;37.46
11912;BME280;6016;41.928;25.556;2023-03-20T07:03:39;99467.78;;;22.59;36.01
11912;BME280;6016;41.928;25.556;2023-03-20T07:06:07;99460.06;;;23.35;34.25
11912;BME280;6016;41.928;25.556;2023-03-20T07:08:33;99465.75;;;23.91;33.81
11912;BME280;6016;41.928;25.556;2023-03-20T07:11:01;99468.09;;;24.13;32.93
11912;BME280;6016;41.928;25.556;2023-03-20T07:13:28;99459.41;;;24.36;32.82
11912;BME280;6016;41.928;25.556;2023-03-20T07:15:55;99450.97;;;24.70;32.25
11912;BME280;6016;41.928;25.556;2023-03-20T07:18:24;99451.53;;;24.79;31.98
11912;BME280;6016;41.928;25.556;2023-03-20T07:20:51;99386.00;;;24.71;31.29
11912;BME280;6016;41.928;25.556;2023-03-20T07:23:18;99433.28;;;25.11;31.55
11912;BME280;6016;41.928;25.556;2023-03-20T07:25:45;99465.13;;;25.70;30.84
11912;BME280;6016;41.928;25.556;2023-03-20T07:28:12;99448.97;;;25.94;30.50
11912;BME280;6016;41.928;25.556;2023-03-20T07:30:39;99447.22;;;25.58;30.40
11912;BME280;6016;41.928;25.556;2023-03-20T07:33:06;99373.53;;;24.70;31.60
11912;BME280;6016;41.928;25.556;2023-03-20T07:35:34;99437.00;;;25.29;31.78
11912;BME280;6016;41.928;25.556;2023-03-20T07:38:01;99423.88;;;24.83;31.52
11912;BME280;6016;41.928;25.556;2023-03-20T07:40:28;99438.41;;;24.82;32.34
11912;BME280;6016;41.928;25.556;2023-03-20T07:42:55;99437.81;;;24.80;32.27
11912;BME280;6016;41.928;25.556;2023-03-20T07:45:22;99446.41;;;25.08;31.29
11912;BME280;6016;41.928;25.556;2023-03-20T07:47:48;99435.69;;;25.01;31.80
11912;BME280;6016;41.928;25.556;2023-03-20T07:50:15;99438.53;;;23.99;32.61
11912;BME280;6016;41.928;25.556;2023-03-20T07:52:46;99427.16;;;23.33;34.02
11912;BME280;6016;41.928;25.556;2023-03-20T07:55:14;99425.63;;;23.05;34.16
11912;BME280;6016;41.928;25.556;2023-03-20T07:57:40;99428.81;;;22.88;34.78
11912;BME280;6016;41.928;25.556;2023-03-20T08:00:10;99423.25;;;22.70;35.11
11912;BME280;6016;41.928;25.556;2023-03-20T08:02:37;99354.75;;;21.66;35.54
11912;BME280;6016;41.928;25.556;2023-03-20T08:05:04;99429.09;;;21.72;36.71
11912;BME280;6016;41.928;25.556;2023-03-20T08:07:31;99426.97;;;21.54;36.16
11912;BME280;6016;41.928;25.556;2023-03-20T08:10:00;99431.69;;;21.45;36.45
11912;BME280;6016;41.928;25.556;2023-03-20T08:12:26;99429.03;;;21.59;36.38
11912;BME280;6016;41.928;25.556;2023-03-20T08:14:53;99426.22;;;21.67;36.56
11912;BME280;6016;41.928;25.556;2023-03-20T08:17:20;99416.09;;;21.83;36.40
11912;BME280;6016;41.928;25.556;2023-03-20T08:19:47;99294.81;;;21.25;35.59
11912;BME280;6016;41.928;25.556;2023-03-20T08:22:14;99339.44;;;21.80;35.93
11912;BME280;6016;41.928;25.556;2023-03-20T08:24:40;99421.22;;;22.45;35.43
11912;BME280;6016;41.928;25.556;2023-03-20T08:27:09;99419.75;;;22.62;35.29
11912;BME280;6016;41.928;25.556;2023-03-20T08:29:35;99428.06;;;22.54;35.39
11912;BME280;6016;41.928;25.556;2023-03-20T08:32:02;98938.25;;;19.21;35.40
11912;BME280;6016;41.928;25.556;2023-03-20T08:34:30;99413.63;;;21.88;36.00
11912;BME280;6016;41.928;25.556;2023-03-20T08:36:58;99433.47;;;21.87;36.16
11912;BME280;6016;41.928;25.556;2023-03-20T08:39:24;99411.44;;;21.36;37.56
11912;BME280;6016;41.928;25.556;2023-03-20T08:41:51;99435.75;;;21.14;38.24
11912;BME280;6016;41.928;25.556;2023-03-20T08:44:19;99432.84;;;21.16;38.98
11912;BME280;6016;41.928;25.556;2023-03-20T08:46:46;99428.97;;;21.32;38.86
11912;BME280;6016;41.928;25.556;2023-03-20T08:49:13;99307.44;;;20.62;38.25
11912;BME280;6016;41.928;25.556;2023-03-20T08:51:40;99422.34;;;21.21;38.55
11912;BME280;6016;41.928;25.556;2023-03-20T08:54:07;99389.28;;;21.07;39.29
11912;BME280;6016;41.928;25.556;2023-03-20T08:56:34;99396.06;;;20.96;38.10
11912;BME280;6016;41.928;25.556;2023-03-20T08:59:01;99415.94;;;20.73;37.94
11912;BME280;6016;41.928;25.556;2023-03-20T09:01:29;99405.50;;;20.92;36.28
11912;BME280;6016;41.928;25.556;2023-03-20T09:03:57;99392.41;;;20.69;37.95
11912;BME280;6016;41.928;25.556;2023-03-20T09:06:23;99402.47;;;20.95;37.27
11912;BME280;6016;41.928;25.556;2023-03-20T09:08:50;99406.34;;;20.86;38.28
11912;BME280;6016;41.928;25.556;2023-03-20T09:11:18;99398.63;;;20.76;38.29
11912;BME280;6016;41.928;25.556;2023-03-20T09:13:45;99394.84;;;20.99;38.05
11912;BME280;6016;41.928;25.556;2023-03-20T09:16:12;99403.19;;;21.31;37.94
11912;BME280;6016;41.928;25.556;2023-03-20T09:18:40;99396.25;;;21.77;37.70
11912;BME280;6016;41.928;25.556;2023-03-20T09:21:07;99397.91;;;22.12;37.31
11912;BME280;6016;41.928;25.556;2023-03-20T09:23:34;99320.44;;;21.82;35.95
11912;BME280;6016;41.928;25.556;2023-03-20T09:26:01;99321.44;;;22.08;36.19
11912;BME280;6016;41.928;25.556;2023-03-20T09:28:28;99301.78;;;22.27;35.45
11912;BME280;6016;41.928;25.556;2023-03-20T09:30:55;99362.94;;;22.32;34.75
11912;BME280;6016;41.928;25.556;2023-03-20T09:33:22;99390.22;;;22.49;35.67
11912;BME280;6016;41.928;25.556;2023-03-20T09:35:51;99375.94;;;22.55;35.32
11912;BME280;6016;41.928;25.556;2023-03-20T09:38:18;99381.41;;;22.81;35.65
11912;BME280;6016;41.928;25.556;2023-03-20T09:40:53;99383.31;;;22.73;34.14
11912;BME280;6016;41.928;25.556;2023-03-20T09:43:36;99331.59;;;21.99;34.89
11912;BME280;6016;41.928;25.556;2023-03-20T09:46:23;99378.88;;;22.13;35.05
11912;BME280;6016;41.928;25.556;2023-03-20T09:48:56;99365.47;;;22.00;37.16
11912;BME280;6016;41.928;25.556;2023-03-20T09:51:31;99383.22;;;22.21;36.32
11912;BME280;6016;41.928;25.556;2023-03-20T09:54:04;99363.53;;;22.47;36.74
11912;BME280;6016;41.928;25.556;2023-03-20T09:56:33;99362.63;;;22.74;36.46
11912;BME280;6016;41.928;25.556;2023-03-20T09:59:02;99355.63;;;22.66;35.45
11912;BME280;6016;41.928;25.556;2023-03-20T10:01:32;99359.66;;;22.89;36.22
11912;BME280;6016;41.928;25.556;2023-03-20T10:04:06;99352.19;;;22.91;36.11
11912;BME280;6016;41.928;25.556;2023-03-20T10:06:35;99354.81;;;23.04;36.19
11912;BME280;6016;41.928;25.556;2023-03-20T10:09:11;99298.31;;;22.72;34.43
11912;BME280;6016;41.928;25.556;2023-03-20T10:14:49;99344.06;;;22.66;34.76
11912;BME280;6016;41.928;25.556;2023-03-20T10:17:29;99339.09;;;22.56;36.82
11912;BME280;6016;41.928;25.556;2023-03-20T10:20:03;99320.13;;;22.51;36.59
11912;BME280;6016;41.928;25.556;2023-03-20T10:22:38;99329.22;;;22.43;34.69
11912;BME280;6016;41.928;25.556;2023-03-20T10:25:19;99336.53;;;22.09;35.79
11912;BME280;6016;41.928;25.556;2023-03-20T10:27:50;99316.94;;;21.95;36.76
11912;BME280;6016;41.928;25.556;2023-03-20T10:30:25;99313.59;;;22.13;36.37
11912;BME280;6016;41.928;25.556;2023-03-20T10:33:02;99330.34;;;22.01;35.77
11912;BME280;6016;41.928;25.556;2023-03-20T10:35:38;99311.06;;;22.25;36.38
11912;BME280;6016;41.928;25.556;2023-03-20T10:38:17;99303.84;;;22.25;36.18
11912;BME280;6016;41.928;25.556;2023-03-20T10:40:50;99277.06;;;21.78;36.06
11912;BME280;6016;41.928;25.556;2023-03-20T10:43:20;99293.75;;;22.14;36.03
11912;BME280;6016;41.928;25.556;2023-03-20T10:45:51;99292.09;;;22.19;37.14
11912;BME280;6016;41.928;25.556;2023-03-20T10:48:23;99228.66;;;21.98;36.07
11912;BME280;6016;41.928;25.556;2023-03-20T10:50:53;99134.03;;;21.10;36.05
11912;BME280;6016;41.928;25.556;2023-03-20T10:53:33;99271.06;;;21.89;37.01
11912;BME280;6016;41.928;25.556;2023-03-20T10:56:04;99277.44;;;22.02;37.72
11912;BME280;6016;41.928;25.556;2023-03-20T10:58:34;99276.34;;;22.16;36.76
11912;BME280;6016;41.928;25.556;2023-03-20T11:01:04;99251.81;;;22.06;37.25
11912;BME280;6016;41.928;25.556;2023-03-20T11:03:32;99271.00;;;22.10;36.94
11912;BME280;6016;41.928;25.556;2023-03-20T11:06:07;99269.97;;;22.11;36.19
11912;BME280;6016;41.928;25.556;2023-03-20T11:08:40;99263.31;;;22.27;36.82
11912;BME280;6016;41.928;25.556;2023-03-20T11:11:08;99258.53;;;22.29;36.44
11912;BME280;6016;41.928;25.556;2023-03-20T11:13:37;99264.19;;;22.14;36.50
11912;BME280;6016;41.928;25.556;2023-03-20T11:16:13;99249.41;;;22.37;37.12
11912;BME280;6016;41.928;25.556;2023-03-20T11:18:41;99249.66;;;22.28;35.79
11912;BME280;6016;41.928;25.556;2023-03-20T11:21:16;99246.28;;;22.46;36.28
11912;BME280;6016;41.928;25.556;2023-03-20T11:23:45;99237.34;;;22.59;36.31
11912;BME280;6016;41.928;25.556;2023-03-20T11:26:14;99219.56;;;22.58;35.04
11912;BME280;6016;41.928;25.556;2023-03-20T11:28:46;99216.03;;;22.65;35.88
11912;BME280;6016;41.928;25.556;2023-03-20T11:31:16;99173.28;;;22.50;35.52
11912;BME280;6016;41.928;25.556;2023-03-20T11:33:50;99213.66;;;22.82;34.74
11912;BME280;6016;41.928;25.556;2023-03-20T11:36:22;99166.59;;;22.20;34.85
11912;BME280;6016;41.928;25.556;2023-03-20T11:38:52;99015.22;;;21.10;35.42
11912;BME280;6016;41.928;25.556;2023-03-20T11:41:25;99204.56;;;22.37;35.11
11912;BME280;6016;41.928;25.556;2023-03-20T11:43:52;99204.16;;;22.33;35.25
11912;BME280;6016;41.928;25.556;2023-03-20T11:46:20;99194.25;;;22.34;34.80
11912;BME280;6016;41.928;25.556;2023-03-20T11:49:02;99186.09;;;22.47;35.41
11912;BME280;6016;41.928;25.556;2023-03-20T11:51:31;99187.38;;;22.38;34.98
11912;BME280;6016;41.928;25.556;2023-03-20T11:54:02;99183.91;;;22.70;35.32
11912;BME280;6016;41.928;25.556;2023-03-20T11:56:32;99178.53;;;22.70;35.62
11912;BME280;6016;41.928;25.556;2023-03-20T11:59:02;99175.69;;;22.65;37.06
11912;BME280;6016;41.928;25.556;2023-03-20T12:01:37;99163.97;;;22.52;35.68
11912;BME280;6016;41.928;25.556;2023-03-20T12:04:11;99110.81;;;22.15;35.70
11912;BME280;6016;41.928;25.556;2023-03-20T12:06:46;99141.25;;;22.48;35.54
11912;BME280;6016;41.928;25.556;2023-03-20T12:09:28;99153.69;;;22.74;34.91
11912;BME280;6016;41.928;25.556;2023-03-20T12:11:57;99144.63;;;22.69;35.40
11912;BME280;6016;41.928;25.556;2023-03-20T12:14:32;99128.22;;;22.45;34.74
11912;BME280;6016;41.928;25.556;2023-03-20T12:17:32;99081.16;;;22.29;35.86
11912;BME280;6016;41.928;25.556;2023-03-20T12:20:05;99143.72;;;22.82;35.49
11912;BME280;6016;41.928;25.556;2023-03-20T12:22:36;99137.16;;;22.71;34.92
11912;BME280;6016;41.928;25.556;2023-03-20T12:25:16;99076.84;;;22.60;34.87
11912;BME280;6016;41.928;25.556;2023-03-20T12:27:51;99126.81;;;23.18;35.26
11912;BME280;6016;41.928;25.556;2023-03-20T12:30:25;99132.31;;;23.05;34.36
11912;BME280;6016;41.928;25.556;2023-03-20T12:32:59;99089.59;;;22.71;34.23
11912;BME280;6016;41.928;25.556;2023-03-20T12:35:28;99086.13;;;22.64;34.71
11912;BME280;6016;41.928;25.556;2023-03-20T12:37:56;99068.91;;;22.40;34.42
11912;BME280;6016;41.928;25.556;2023-03-20T12:40:32;99085.84;;;22.72;34.69
11912;BME280;6016;41.928;25.556;2023-03-20T12:43:03;99116.53;;;22.90;34.52
11912;BME280;6016;41.928;25.556;2023-03-20T12:45:36;99110.41;;;23.01;35.46
11912;BME280;6016;41.928;25.556;2023-03-20T12:48:33;99051.09;;;22.45;33.49
11912;BME280;6016;41.928;25.556;2023-03-20T12:51:07;99070.69;;;22.53;34.45
11912;BME280;6016;41.928;25.556;2023-03-20T12:53:46;99109.16;;;22.79;34.48
11912;BME280;6016;41.928;25.556;2023-03-20T12:56:28;99106.88;;;22.82;34.40
11912;BME280;6016;41.928;25.556;2023-03-20T12:59:00;99076.31;;;22.51;33.43
11912;BME280;6016;41.928;25.556;2023-03-20T13:01:36;99102.38;;;22.76;33.22
11912;BME280;6016;41.928;25.556;2023-03-20T13:04:13;99104.88;;;22.71;33.20
11912;BME280;6016;41.928;25.556;2023-03-20T13:06:50;99077.72;;;22.47;33.72
11912;BME280;6016;41.928;25.556;2023-03-20T13:09:46;99019.78;;;22.00;33.42
11912;BME280;6016;41.928;25.556;2023-03-20T13:12:25;99095.13;;;22.51;33.52
11912;BME280;6016;41.928;25.556;2023-03-20T13:15:10;99025.19;;;22.26;33.58
11912;BME280;6016;41.928;25.556;2023-03-20T13:17:46;99069.50;;;22.42;32.79
11912;BME280;6016;41.928;25.556;2023-03-20T13:20:22;99089.28;;;22.80;33.06
11912;BME280;6016;41.928;25.556;2023-03-20T13:23:02;99093.03;;;22.79;33.48
11912;BME280;6016;41.928;25.556;2023-03-20T13:28:27;99089.94;;;22.50;32.42
11912;BME280;6016;41.928;25.556;2023-03-20T13:31:08;99091.00;;;22.48;33.52